createdAt,value
2019-05-15T00:00:21.494Z,99.90
2019-05-15T00:01:02.569Z,99.90
2019-05-15T00:01:41.210Z,99.90
2019-05-15T00:02:20.631Z,99.90
2019-05-15T00:02:58.992Z,99.90
2019-05-15T00:03:39.080Z,99.90
2019-05-15T00:04:18.665Z,99.90
2019-05-15T00:04:58.550Z,99.90
2019-05-15T00:05:39.052Z,99.90
2019-05-15T00:06:19.082Z,99.90
2019-05-15T00:06:58.240Z,99.90
2019-05-15T00:07:39.100Z,99.90
2019-05-15T00:08:18.701Z,99.90
2019-05-15T00:08:59.006Z,99.90
2019-05-15T00:09:41.550Z,99.90
2019-05-15T00:10:18.166Z,99.90
2019-05-15T00:10:58.090Z,99.90
2019-05-15T00:11:38.774Z,99.90
2019-05-15T00:12:19.683Z,99.90
2019-05-15T00:12:58.320Z,99.90
2019-05-15T00:13:38.646Z,99.90
2019-05-15T00:14:22.307Z,99.90
2019-05-15T00:15:00.226Z,99.90
2019-05-15T00:15:40.065Z,99.90
2019-05-15T00:16:18.631Z,99.90
2019-05-15T00:16:58.974Z,99.90
2019-05-15T00:17:36.425Z,99.90
2019-05-15T00:18:14.985Z,99.90
2019-05-15T00:18:53.357Z,99.90
2019-05-15T00:19:34.367Z,99.90
2019-05-15T00:20:12.160Z,99.90
2019-05-15T00:20:50.393Z,99.90
2019-05-15T00:21:28.786Z,99.90
2019-05-15T00:22:08.626Z,99.90
2019-05-15T00:22:48.431Z,99.90
2019-05-15T00:23:30.671Z,99.90
2019-05-15T00:24:13.207Z,99.90
2019-05-15T00:24:48.963Z,99.90
2019-05-15T00:25:28.320Z,99.90
2019-05-15T00:26:08.982Z,99.90
2019-05-15T00:26:48.081Z,99.90
2019-05-15T00:27:25.549Z,99.90
2019-05-15T00:28:03.692Z,99.90
2019-05-15T00:28:41.774Z,99.90
2019-05-15T00:29:20.046Z,99.90
2019-05-15T00:29:57.969Z,99.90
2019-05-15T00:30:38.484Z,99.90
2019-05-15T00:31:18.414Z,99.90
2019-05-15T00:31:58.761Z,99.90
2019-05-15T00:32:39.300Z,99.90
2019-05-15T00:33:19.341Z,99.90
2019-05-15T00:33:59.325Z,99.90
2019-05-15T00:34:37.991Z,99.90
2019-05-15T00:35:34.783Z,99.90
2019-05-15T00:36:13.333Z,99.90
2019-05-15T00:36:51.427Z,99.90
2019-05-15T00:37:29.608Z,99.90
2019-05-15T00:38:09.044Z,99.90
2019-05-15T00:38:48.310Z,99.90
2019-05-15T00:39:28.360Z,99.90
2019-05-15T00:40:08.867Z,99.90
2019-05-15T00:40:48.955Z,99.90
2019-05-15T00:41:27.872Z,99.90
2019-05-15T00:42:08.113Z,99.90
2019-05-15T00:42:46.175Z,99.90
2019-05-15T00:43:24.066Z,99.90
2019-05-15T00:44:02.452Z,99.90
2019-05-15T00:44:40.843Z,99.90
2019-05-15T00:45:19.715Z,99.90
2019-05-15T00:45:58.604Z,99.90
2019-05-15T00:46:38.419Z,99.90
2019-05-15T00:47:18.116Z,99.90
2019-05-15T00:47:57.926Z,99.90
2019-05-15T00:48:39.692Z,99.90
2019-05-15T00:49:18.923Z,99.90
2019-05-15T00:49:58.301Z,99.90
2019-05-15T00:50:36.291Z,99.90
2019-05-15T00:51:14.818Z,99.90
2019-05-15T00:51:53.004Z,99.90
2019-05-15T00:52:31.455Z,99.90
2019-05-15T00:53:10.417Z,99.90
2019-05-15T00:53:48.536Z,99.90
2019-05-15T00:54:29.587Z,99.90
2019-05-15T00:55:09.221Z,99.90
2019-05-15T00:55:48.634Z,99.90
2019-05-15T00:56:28.435Z,99.90
2019-05-15T00:57:08.576Z,99.90
2019-05-15T00:57:48.642Z,99.90
2019-05-15T00:58:28.341Z,99.90
2019-05-15T00:59:08.230Z,99.90
2019-05-15T00:59:48.455Z,99.90
2019-05-15T01:00:45.677Z,99.90
2019-05-15T01:01:23.462Z,99.90
2019-05-15T01:02:01.737Z,99.90
2019-05-15T01:02:40.037Z,99.90
2019-05-15T01:03:19.174Z,99.90
2019-05-15T01:03:58.579Z,99.90
2019-05-15T01:04:39.768Z,99.90
2019-05-15T01:05:18.625Z,99.90
2019-05-15T01:05:58.594Z,99.90
2019-05-15T01:06:38.978Z,99.90
2019-05-15T01:07:18.814Z,99.90
2019-05-15T01:07:58.631Z,99.90
2019-05-15T01:08:39.434Z,99.90
2019-05-15T01:09:18.704Z,99.90
2019-05-15T01:09:57.944Z,99.90
2019-05-15T01:10:38.609Z,99.90
2019-05-15T01:11:16.288Z,99.90
2019-05-15T01:11:54.819Z,99.90
2019-05-15T01:12:32.431Z,99.90
2019-05-15T01:13:10.451Z,99.90
2019-05-15T01:13:48.453Z,99.90
2019-05-15T01:14:27.850Z,99.90
2019-05-15T01:15:08.991Z,99.90
2019-05-15T01:15:49.017Z,99.90
2019-05-15T01:16:28.118Z,99.90
2019-05-15T01:17:08.867Z,99.90
2019-05-15T01:17:46.284Z,99.90
2019-05-15T01:18:26.133Z,99.90
2019-05-15T01:19:03.726Z,99.90
2019-05-15T01:19:42.095Z,99.90
2019-05-15T01:20:20.907Z,99.90
2019-05-15T01:20:58.913Z,99.90
2019-05-15T01:21:38.550Z,99.90
2019-05-15T01:22:16.316Z,99.90
2019-05-15T01:22:54.664Z,99.90
2019-05-15T01:23:32.934Z,99.90
2019-05-15T01:24:10.230Z,99.90
2019-05-15T01:24:48.576Z,99.90
2019-05-15T01:25:28.007Z,99.90
2019-05-15T01:26:08.169Z,99.90
2019-05-15T01:26:49.225Z,99.90
2019-05-15T01:27:29.179Z,99.90
2019-05-15T01:28:09.349Z,99.90
2019-05-15T01:28:49.489Z,99.90
2019-05-15T01:29:40.935Z,99.90
2019-05-15T01:30:08.974Z,99.90
2019-05-15T01:30:49.166Z,99.90
2019-05-15T01:31:28.533Z,99.90
2019-05-15T01:32:08.450Z,99.90
2019-05-15T01:32:48.421Z,99.90
2019-05-15T01:33:28.126Z,99.90
2019-05-15T01:34:05.875Z,99.90
2019-05-15T01:34:44.554Z,99.90
2019-05-15T01:35:22.576Z,99.90
2019-05-15T01:36:00.847Z,99.90
2019-05-15T01:36:39.068Z,99.90
2019-05-15T01:37:18.762Z,99.90
2019-05-15T01:37:58.455Z,99.90
2019-05-15T01:38:38.629Z,99.90
2019-05-15T01:39:18.331Z,99.90
2019-05-15T01:39:55.103Z,99.90
2019-05-15T01:40:33.386Z,99.90
2019-05-15T01:41:13.824Z,99.90
2019-05-15T01:41:51.769Z,99.90
2019-05-15T01:42:29.834Z,99.90
2019-05-15T01:43:09.065Z,99.90
2019-05-15T01:43:48.892Z,99.90
2019-05-15T01:44:28.752Z,99.90
2019-05-15T01:45:08.583Z,99.90
2019-05-15T01:45:48.272Z,99.90
2019-05-15T01:46:28.379Z,99.90
2019-05-15T01:47:08.445Z,99.90
2019-05-15T01:47:48.036Z,99.90
2019-05-15T01:48:28.278Z,99.90
2019-05-15T01:49:07.946Z,99.90
2019-05-15T01:49:46.293Z,99.90
2019-05-15T01:50:26.414Z,99.90
2019-05-15T01:51:04.098Z,99.90
2019-05-15T01:51:42.031Z,99.90
2019-05-15T01:52:19.921Z,99.90
2019-05-15T01:52:58.581Z,99.90
2019-05-15T01:53:38.522Z,99.90
2019-05-15T01:54:18.653Z,99.90
2019-05-15T01:54:58.258Z,99.90
2019-05-15T01:55:36.018Z,99.90
2019-05-15T01:56:14.118Z,99.90
2019-05-15T01:56:52.103Z,99.90
2019-05-15T01:57:30.744Z,99.90
2019-05-15T01:58:09.024Z,99.90
2019-05-15T01:58:49.856Z,99.90
2019-05-15T01:59:28.365Z,99.90
2019-05-15T02:00:08.761Z,99.90
2019-05-15T02:00:48.352Z,99.90
2019-05-15T02:01:28.886Z,99.90
2019-05-15T02:02:09.505Z,99.90
2019-05-15T02:02:49.078Z,99.90
2019-05-15T02:03:28.940Z,99.90
2019-05-15T02:04:08.371Z,99.90
2019-05-15T02:04:48.585Z,99.90
2019-05-15T02:05:28.253Z,99.90
2019-05-15T02:06:08.134Z,99.90
2019-05-15T02:06:48.095Z,99.90
2019-05-15T02:07:25.472Z,99.90
2019-05-15T02:08:03.274Z,99.90
2019-05-15T02:08:41.200Z,99.90
2019-05-15T02:09:20.834Z,99.90
2019-05-15T02:10:01.296Z,99.90
2019-05-15T02:10:39.544Z,99.90
2019-05-15T02:11:18.125Z,99.90
2019-05-15T02:11:58.162Z,99.90
2019-05-15T02:12:38.465Z,99.90
2019-05-15T02:13:15.766Z,99.90
2019-05-15T02:13:53.956Z,99.90
2019-05-15T02:14:32.366Z,99.90
2019-05-15T02:15:11.034Z,99.90
2019-05-15T02:15:48.459Z,99.90
2019-05-15T02:16:28.615Z,99.90
2019-05-15T02:17:08.458Z,99.90
2019-05-15T02:17:48.138Z,99.90
2019-05-15T02:18:28.315Z,99.90
2019-05-15T02:19:08.824Z,99.90
2019-05-15T02:19:48.411Z,99.90
2019-05-15T02:20:29.233Z,99.90
2019-05-15T02:21:10.330Z,99.90
2019-05-15T02:21:48.615Z,99.90
2019-05-15T02:22:28.357Z,99.90
2019-05-15T02:23:11.424Z,99.90
2019-05-15T02:23:48.016Z,99.90
2019-05-15T02:24:25.052Z,99.90
2019-05-15T02:25:03.257Z,99.90
2019-05-15T02:25:41.078Z,99.90
2019-05-15T02:26:19.099Z,99.90
2019-05-15T02:26:58.828Z,99.90
2019-05-15T02:27:39.412Z,99.90
2019-05-15T02:28:18.527Z,99.90
2019-05-15T02:28:56.534Z,99.90
2019-05-15T02:29:34.626Z,99.90
2019-05-15T02:30:24.233Z,99.90
2019-05-15T02:30:52.494Z,99.90
2019-05-15T02:31:30.599Z,99.90
2019-05-15T02:32:10.143Z,99.90
2019-05-15T02:32:50.098Z,99.90
2019-05-15T02:33:30.089Z,99.90
2019-05-15T02:34:09.764Z,99.90
2019-05-15T02:34:49.947Z,99.90
2019-05-15T02:35:29.255Z,99.90
2019-05-15T02:36:04.826Z,99.90
2019-05-15T02:36:48.994Z,99.90
2019-05-15T02:37:29.475Z,99.90
2019-05-15T02:38:10.231Z,99.90
2019-05-15T02:38:48.699Z,99.90
2019-05-15T02:39:28.621Z,99.90
2019-05-15T02:40:09.657Z,99.90
2019-05-15T02:40:45.680Z,99.90
2019-05-15T02:41:23.831Z,99.90
2019-05-15T02:42:02.023Z,99.90
2019-05-15T02:42:40.742Z,99.90
2019-05-15T02:43:19.108Z,99.90
2019-05-15T02:43:59.150Z,99.90
2019-05-15T02:44:40.359Z,99.90
2019-05-15T02:45:19.720Z,99.90
2019-05-15T02:46:00.123Z,99.90
2019-05-15T02:46:39.104Z,99.90
2019-05-15T02:47:19.666Z,99.90
2019-05-15T02:47:59.472Z,99.90
2019-05-15T02:48:35.882Z,99.90
2019-05-15T02:49:14.185Z,99.90
2019-05-15T02:49:52.295Z,99.90
2019-05-15T02:50:30.982Z,99.90
2019-05-15T02:51:09.695Z,99.90
2019-05-15T02:51:49.394Z,99.90
2019-05-15T02:52:29.469Z,99.90
2019-05-15T02:53:09.970Z,99.90
2019-05-15T02:53:50.145Z,99.90
2019-05-15T02:54:30.007Z,99.90
2019-05-15T02:55:09.448Z,99.90
2019-05-15T02:55:49.465Z,99.90
2019-05-15T02:56:29.364Z,99.90
2019-05-15T02:57:09.851Z,99.90
2019-05-15T02:57:49.497Z,99.90
2019-05-15T02:58:29.148Z,99.90
2019-05-15T02:59:09.013Z,99.90
2019-05-15T02:59:49.891Z,99.90
2019-05-15T03:00:37.754Z,99.90
2019-05-15T03:01:09.403Z,99.90
2019-05-15T03:01:49.399Z,99.90
2019-05-15T03:02:28.658Z,99.90
2019-05-15T03:03:09.458Z,99.90
2019-05-15T03:03:49.803Z,99.90
2019-05-15T03:04:29.070Z,99.90
2019-05-15T03:05:09.375Z,99.90
2019-05-15T03:05:49.790Z,99.90
2019-05-15T03:06:30.012Z,99.90
2019-05-15T03:07:09.632Z,99.90
2019-05-15T03:07:49.412Z,99.90
2019-05-15T03:08:29.755Z,99.90
2019-05-15T03:09:09.471Z,99.90
2019-05-15T03:09:49.613Z,99.90
2019-05-15T03:10:29.638Z,99.90
2019-05-15T03:11:09.798Z,99.90
2019-05-15T03:11:49.675Z,99.90
2019-05-15T03:12:29.064Z,99.90
2019-05-15T03:13:10.259Z,99.90
2019-05-15T03:13:50.275Z,99.90
2019-05-15T03:14:29.263Z,99.90
2019-05-15T03:15:09.984Z,99.90
2019-05-15T03:15:49.115Z,99.90
2019-05-15T03:16:30.451Z,99.90
2019-05-15T03:17:09.507Z,99.90
2019-05-15T03:17:49.414Z,99.90
2019-05-15T03:18:28.864Z,99.90
2019-05-15T03:19:09.946Z,99.90
2019-05-15T03:19:49.498Z,99.90
2019-05-15T03:20:29.747Z,99.90
2019-05-15T03:21:09.494Z,99.90
2019-05-15T03:21:49.667Z,99.90
2019-05-15T03:22:29.338Z,99.90
2019-05-15T03:23:09.635Z,99.90
2019-05-15T03:23:50.733Z,99.90
2019-05-15T03:24:29.085Z,99.90
2019-05-15T03:25:10.545Z,99.90
2019-05-15T03:25:49.017Z,99.90
2019-05-15T03:26:29.849Z,99.90
2019-05-15T03:27:09.165Z,99.90
2019-05-15T03:27:49.889Z,99.90
2019-05-15T03:28:29.191Z,99.90
2019-05-15T03:29:09.499Z,99.90
2019-05-15T03:29:49.134Z,99.90
2019-05-15T03:30:31.789Z,99.90
2019-05-15T03:31:25.757Z,99.90
2019-05-15T03:32:00.708Z,99.90
2019-05-15T03:32:35.943Z,99.90
2019-05-15T03:33:11.571Z,99.90
2019-05-15T03:33:47.093Z,99.90
2019-05-15T03:34:30.690Z,99.90
2019-05-15T03:35:06.065Z,99.90
2019-05-15T03:35:45.120Z,99.90
2019-05-15T03:36:24.609Z,99.90
2019-05-15T03:37:03.889Z,99.90
2019-05-15T03:37:42.383Z,99.90
2019-05-15T03:38:23.301Z,99.90
2019-05-15T03:39:09.698Z,99.90
2019-05-15T03:39:51.619Z,99.90
2019-05-15T03:40:29.946Z,99.90
2019-05-15T03:41:10.240Z,99.90
2019-05-15T03:41:49.715Z,99.90
2019-05-15T03:42:29.262Z,99.90
2019-05-15T03:43:08.877Z,99.90
2019-05-15T03:43:49.360Z,99.90
2019-05-15T03:44:28.586Z,99.90
2019-05-15T03:45:10.139Z,99.90
2019-05-15T03:45:49.378Z,99.90
2019-05-15T03:46:29.142Z,99.90
2019-05-15T03:47:09.254Z,99.90
2019-05-15T03:47:49.184Z,99.90
2019-05-15T03:48:28.782Z,99.90
2019-05-15T03:49:08.640Z,99.90
2019-05-15T03:49:49.176Z,99.90
2019-05-15T03:50:28.719Z,99.90
2019-05-15T03:51:05.432Z,99.90
2019-05-15T03:51:45.879Z,99.90
2019-05-15T03:52:23.631Z,99.90
2019-05-15T03:53:01.488Z,99.90
2019-05-15T03:53:40.301Z,99.90
2019-05-15T03:54:19.070Z,99.90
2019-05-15T03:54:58.854Z,99.90
2019-05-15T03:55:36.419Z,99.90
2019-05-15T03:56:22.312Z,99.90
2019-05-15T03:57:00.622Z,99.90
2019-05-15T03:57:39.960Z,99.90
2019-05-15T03:58:21.471Z,99.90
2019-05-15T03:58:59.720Z,99.90
2019-05-15T03:59:39.883Z,99.90
2019-05-15T04:00:19.512Z,99.90
2019-05-15T04:01:00.166Z,99.90
2019-05-15T04:01:43.294Z,99.90
2019-05-15T04:02:19.409Z,99.90
2019-05-15T04:02:59.051Z,99.90
2019-05-15T04:03:38.928Z,99.90
2019-05-15T04:04:18.757Z,99.90
2019-05-15T04:04:58.092Z,99.90
2019-05-15T04:05:33.976Z,99.90
2019-05-15T04:06:13.272Z,99.90
2019-05-15T04:06:51.272Z,99.90
2019-05-15T04:07:29.318Z,99.90
2019-05-15T04:08:10.362Z,99.90
2019-05-15T04:08:49.364Z,99.90
2019-05-15T04:09:29.179Z,99.90
2019-05-15T04:10:05.733Z,99.90
2019-05-15T04:10:48.937Z,99.90
2019-05-15T04:11:34.958Z,99.90
2019-05-15T04:12:13.036Z,99.90
2019-05-15T04:12:50.938Z,99.90
2019-05-15T04:13:30.074Z,99.90
2019-05-15T04:14:10.222Z,99.90
2019-05-15T04:14:50.001Z,99.90
2019-05-15T04:15:29.856Z,99.90
2019-05-15T04:16:05.964Z,99.90
2019-05-15T04:16:44.466Z,99.90
2019-05-15T04:17:22.448Z,99.90
2019-05-15T04:18:00.579Z,99.90
2019-05-15T04:18:41.211Z,99.90
2019-05-15T04:19:20.249Z,99.90
2019-05-15T04:19:58.910Z,99.90
2019-05-15T04:20:39.956Z,99.90
2019-05-15T04:21:20.045Z,99.90
2019-05-15T04:21:59.871Z,99.90
2019-05-15T04:22:36.000Z,99.90
2019-05-15T04:23:19.103Z,99.90
2019-05-15T04:23:58.779Z,99.90
2019-05-15T04:24:39.480Z,99.90
2019-05-15T04:25:19.164Z,99.90
2019-05-15T04:26:01.234Z,99.90
2019-05-15T04:26:41.203Z,99.90
2019-05-15T04:27:21.313Z,99.90
2019-05-15T04:28:01.777Z,99.90
2019-05-15T04:28:43.440Z,99.90
2019-05-15T04:29:21.227Z,99.90
2019-05-15T04:29:59.379Z,99.90
2019-05-15T04:30:39.307Z,99.90
2019-05-15T04:31:19.422Z,99.90
2019-05-15T04:32:02.478Z,99.90
2019-05-15T04:32:35.633Z,99.90
2019-05-15T04:33:13.650Z,99.90
2019-05-15T04:33:51.352Z,99.90
2019-05-15T04:34:29.495Z,99.90
2019-05-15T04:35:09.221Z,99.90
2019-05-15T04:35:49.723Z,99.90
2019-05-15T04:36:29.687Z,99.90
2019-05-15T04:37:09.371Z,99.90
2019-05-15T04:37:49.504Z,99.90
2019-05-15T04:38:29.298Z,99.90
2019-05-15T04:39:09.854Z,99.70
2019-05-15T04:39:49.101Z,99.60
2019-05-15T04:40:25.805Z,99.30
2019-05-15T04:41:04.086Z,99.00
2019-05-15T04:41:41.799Z,98.70
2019-05-15T04:42:20.414Z,98.70
2019-05-15T04:42:59.207Z,98.80
2019-05-15T04:43:43.737Z,98.70
2019-05-15T04:44:19.336Z,98.70
2019-05-15T04:44:56.435Z,98.60
2019-05-15T04:45:35.404Z,98.40
2019-05-15T04:46:13.308Z,98.30
2019-05-15T04:46:50.494Z,98.30
2019-05-15T04:47:30.403Z,98.20
2019-05-15T04:48:13.772Z,98.00
2019-05-15T04:48:50.910Z,97.20
2019-05-15T04:49:29.270Z,97.30
2019-05-15T04:50:08.920Z,97.00
2019-05-15T04:50:50.444Z,96.80
2019-05-15T04:51:30.632Z,97.20
2019-05-15T04:52:11.403Z,97.10
2019-05-15T04:52:50.151Z,96.90
2019-05-15T04:53:29.708Z,96.70
2019-05-15T04:54:09.495Z,96.40
2019-05-15T04:54:49.633Z,96.70
2019-05-15T04:55:28.977Z,96.80
2019-05-15T04:56:09.383Z,96.90
2019-05-15T04:56:48.729Z,96.80
2019-05-15T04:57:32.596Z,97.10
2019-05-15T04:58:05.504Z,97.00
2019-05-15T04:58:44.647Z,96.90
2019-05-15T04:59:22.447Z,96.90
2019-05-15T05:00:00.652Z,96.80
2019-05-15T05:00:49.925Z,96.90
2019-05-15T05:01:31.266Z,96.70
2019-05-15T05:02:19.356Z,96.60
2019-05-15T05:02:53.742Z,96.40
2019-05-15T05:03:34.390Z,96.40
2019-05-15T05:04:11.964Z,96.30
2019-05-15T05:04:49.694Z,96.30
2019-05-15T05:05:29.382Z,96.30
2019-05-15T05:06:09.447Z,96.30
2019-05-15T05:06:49.271Z,96.50
2019-05-15T05:07:26.157Z,96.40
2019-05-15T05:08:03.748Z,96.10
2019-05-15T05:08:41.688Z,96.20
2019-05-15T05:09:22.123Z,96.40
2019-05-15T05:10:00.343Z,96.40
2019-05-15T05:10:39.580Z,96.60
2019-05-15T05:11:19.353Z,96.70
2019-05-15T05:12:00.519Z,96.90
2019-05-15T05:12:42.028Z,97.00
2019-05-15T05:13:19.966Z,97.30
2019-05-15T05:13:59.123Z,97.60
2019-05-15T05:14:38.911Z,97.50
2019-05-15T05:15:15.252Z,97.60
2019-05-15T05:15:53.057Z,97.50
2019-05-15T05:16:38.976Z,97.90
2019-05-15T05:17:15.178Z,98.00
2019-05-15T05:17:58.630Z,98.40
2019-05-15T05:18:41.448Z,98.40
2019-05-15T05:19:19.368Z,98.40
2019-05-15T05:19:55.600Z,98.90
2019-05-15T05:20:38.111Z,99.10
2019-05-15T05:21:15.145Z,99.30
2019-05-15T05:21:53.133Z,99.10
2019-05-15T05:22:31.187Z,99.30
2019-05-15T05:23:09.373Z,99.30
2019-05-15T05:23:48.397Z,99.30
2019-05-15T05:24:29.074Z,98.90
2019-05-15T05:25:08.047Z,98.60
2019-05-15T05:25:48.833Z,98.20
2019-05-15T05:26:25.701Z,98.50
2019-05-15T05:27:03.373Z,98.20
2019-05-15T05:27:41.687Z,98.50
2019-05-15T05:28:20.065Z,98.50
2019-05-15T05:29:01.463Z,98.80
2019-05-15T05:29:38.594Z,98.90
2019-05-15T05:30:19.014Z,98.80
2019-05-15T05:30:58.789Z,99.10
2019-05-15T05:31:38.865Z,99.20
2019-05-15T05:32:28.826Z,99.10
2019-05-15T05:32:54.217Z,99.00
2019-05-15T05:33:32.238Z,99.00
2019-05-15T05:34:09.455Z,99.10
2019-05-15T05:34:48.299Z,99.10
2019-05-15T05:35:27.852Z,99.10
2019-05-15T05:36:07.710Z,98.80
2019-05-15T05:36:45.027Z,98.80
2019-05-15T05:37:24.287Z,98.80
2019-05-15T05:38:02.656Z,97.60
2019-05-15T05:38:40.232Z,97.60
2019-05-15T05:39:19.882Z,97.50
2019-05-15T05:39:57.745Z,97.60
2019-05-15T05:40:35.525Z,97.30
2019-05-15T05:41:13.207Z,97.30
2019-05-15T05:41:50.201Z,97.20
2019-05-15T05:42:30.417Z,97.30
2019-05-15T05:43:09.470Z,97.30
2019-05-15T05:43:49.931Z,97.20
2019-05-15T05:44:29.296Z,96.80
2019-05-15T05:45:09.422Z,96.70
2019-05-15T05:45:49.119Z,97.10
2019-05-15T05:46:28.144Z,97.00
2019-05-15T05:47:05.672Z,97.30
2019-05-15T05:47:45.707Z,97.30
2019-05-15T05:48:23.644Z,97.10
2019-05-15T05:49:01.896Z,97.20
2019-05-15T05:49:41.569Z,97.30
2019-05-15T05:50:38.547Z,97.70
2019-05-15T05:51:19.111Z,97.60
2019-05-15T05:51:56.017Z,97.70
2019-05-15T05:52:53.216Z,97.70
2019-05-15T05:53:33.481Z,97.70
2019-05-15T05:54:11.249Z,97.60
2019-05-15T05:54:49.451Z,97.10
2019-05-15T05:55:29.891Z,97.10
2019-05-15T05:56:08.923Z,97.20
2019-05-15T05:56:48.295Z,97.30
2019-05-15T05:57:27.981Z,97.40
2019-05-15T05:58:09.609Z,97.30
2019-05-15T05:58:49.161Z,97.60
2019-05-15T05:59:28.628Z,97.60
2019-05-15T06:00:09.324Z,96.70
2019-05-15T06:00:48.908Z,95.60
2019-05-15T06:01:28.234Z,95.00
2019-05-15T06:02:08.240Z,95.40
2019-05-15T06:02:51.332Z,95.20
2019-05-15T06:03:28.109Z,95.10
2019-05-15T06:04:04.801Z,95.40
2019-05-15T06:04:42.775Z,94.70
2019-05-15T06:05:20.664Z,94.40
2019-05-15T06:05:59.238Z,94.60
2019-05-15T06:06:38.422Z,94.40
2019-05-15T06:07:18.321Z,94.60
2019-05-15T06:07:58.207Z,94.80
2019-05-15T06:08:42.235Z,95.00
2019-05-15T06:09:20.082Z,95.10
2019-05-15T06:09:58.205Z,95.30
2019-05-15T06:10:38.558Z,95.40
2019-05-15T06:11:15.510Z,95.40
2019-05-15T06:11:53.016Z,95.40
2019-05-15T06:12:30.941Z,95.60
2019-05-15T06:13:08.951Z,95.70
2019-05-15T06:13:49.437Z,95.90
2019-05-15T06:14:28.833Z,95.40
2019-05-15T06:15:08.992Z,95.00
2019-05-15T06:15:49.100Z,95.30
2019-05-15T06:16:29.317Z,95.10
2019-05-15T06:17:08.382Z,95.10
2019-05-15T06:17:48.113Z,95.50
2019-05-15T06:18:28.149Z,95.80
2019-05-15T06:19:08.135Z,95.10
2019-05-15T06:19:48.806Z,95.40
2019-05-15T06:20:28.256Z,95.50
2019-05-15T06:21:08.823Z,95.40
2019-05-15T06:21:54.564Z,95.40
2019-05-15T06:22:27.574Z,95.60
2019-05-15T06:23:08.454Z,95.70
2019-05-15T06:23:54.857Z,95.70
2019-05-15T06:24:30.568Z,95.70
2019-05-15T06:25:11.401Z,95.80
2019-05-15T06:25:49.670Z,96.20
2019-05-15T06:26:28.296Z,96.10
2019-05-15T06:27:08.186Z,96.00
2019-05-15T06:27:54.767Z,96.00
2019-05-15T06:28:35.506Z,96.30
2019-05-15T06:29:13.755Z,96.10
2019-05-15T06:29:51.439Z,96.20
2019-05-15T06:30:32.830Z,95.50
2019-05-15T06:31:10.986Z,95.00
2019-05-15T06:31:49.041Z,94.80
2019-05-15T06:32:29.969Z,95.10
2019-05-15T06:33:12.828Z,95.20
2019-05-15T06:33:48.860Z,95.40
2019-05-15T06:34:29.153Z,95.40
2019-05-15T06:35:08.731Z,95.70
2019-05-15T06:35:48.944Z,95.80
2019-05-15T06:36:28.995Z,96.10
2019-05-15T06:37:08.322Z,96.00
2019-05-15T06:37:48.302Z,96.10
2019-05-15T06:38:25.083Z,96.50
2019-05-15T06:39:02.535Z,97.00
2019-05-15T06:39:40.551Z,97.10
2019-05-15T06:40:18.605Z,97.20
2019-05-15T06:40:58.319Z,97.30
2019-05-15T06:41:39.012Z,97.50
2019-05-15T06:42:18.767Z,97.00
2019-05-15T06:42:59.293Z,96.90
2019-05-15T06:43:39.875Z,97.00
2019-05-15T06:44:22.973Z,97.20
2019-05-15T06:45:00.772Z,96.80
2019-05-15T06:45:41.699Z,96.50
2019-05-15T06:46:21.721Z,95.90
2019-05-15T06:46:59.458Z,95.80
2019-05-15T06:47:39.521Z,96.20
2019-05-15T06:48:22.633Z,96.30
2019-05-15T06:49:00.999Z,96.60
2019-05-15T06:49:39.160Z,96.80
2019-05-15T06:50:38.859Z,97.20
2019-05-15T06:51:18.143Z,97.40
2019-05-15T06:51:58.165Z,98.10
2019-05-15T06:52:39.105Z,98.60
2019-05-15T06:53:19.190Z,98.80
2019-05-15T06:53:58.256Z,99.10
2019-05-15T06:54:37.755Z,99.20
2019-05-15T06:55:14.829Z,98.70
2019-05-15T06:55:53.959Z,97.90
2019-05-15T06:56:31.620Z,97.70
2019-05-15T06:57:09.345Z,97.40
2019-05-15T06:57:48.659Z,96.80
2019-05-15T06:58:26.022Z,96.70
2019-05-15T06:59:04.128Z,96.90
2019-05-15T06:59:41.914Z,97.20
2019-05-15T07:00:21.159Z,97.50
2019-05-15T07:01:00.447Z,97.80
2019-05-15T07:01:38.660Z,98.00
2019-05-15T07:02:18.683Z,97.60
2019-05-15T07:02:59.014Z,97.40
2019-05-15T07:03:39.283Z,96.80
2019-05-15T07:04:18.210Z,97.00
2019-05-15T07:04:55.577Z,96.80
2019-05-15T07:05:33.454Z,97.10
2019-05-15T07:06:14.056Z,97.40
2019-05-15T07:06:51.720Z,97.90
2019-05-15T07:07:32.037Z,98.00
2019-05-15T07:08:09.720Z,97.60
2019-05-15T07:08:49.542Z,97.20
2019-05-15T07:09:28.515Z,96.10
2019-05-15T07:10:08.973Z,95.60
2019-05-15T07:10:48.729Z,95.60
2019-05-15T07:11:28.175Z,96.00
2019-05-15T07:12:05.448Z,96.00
2019-05-15T07:12:48.437Z,95.90
2019-05-15T07:13:25.294Z,95.30
2019-05-15T07:14:03.638Z,95.50
2019-05-15T07:14:42.707Z,95.40
2019-05-15T07:15:23.593Z,95.40
2019-05-15T07:16:01.398Z,95.50
2019-05-15T07:16:42.437Z,95.50
2019-05-15T07:17:21.329Z,95.50
2019-05-15T07:17:59.626Z,95.40
2019-05-15T07:18:39.164Z,95.80
2019-05-15T07:19:18.977Z,96.10
2019-05-15T07:20:00.458Z,96.60
2019-05-15T07:20:41.687Z,96.30
2019-05-15T07:21:20.701Z,96.30
2019-05-15T07:22:05.944Z,96.00
2019-05-15T07:22:43.506Z,96.00
2019-05-15T07:23:21.600Z,96.00
2019-05-15T07:24:00.104Z,95.90
2019-05-15T07:24:38.387Z,95.70
2019-05-15T07:25:18.899Z,96.00
2019-05-15T07:26:02.177Z,96.00
2019-05-15T07:26:39.459Z,95.90
2019-05-15T07:27:18.489Z,96.20
2019-05-15T07:28:00.700Z,96.30
2019-05-15T07:28:39.135Z,95.20
2019-05-15T07:29:19.080Z,94.70
2019-05-15T07:29:58.374Z,94.70
2019-05-15T07:30:41.197Z,94.40
2019-05-15T07:31:18.330Z,94.10
2019-05-15T07:31:55.991Z,94.00
2019-05-15T07:32:34.032Z,94.00
2019-05-15T07:33:11.736Z,94.50
2019-05-15T07:33:49.806Z,94.90
2019-05-15T07:34:28.384Z,95.20
2019-05-15T07:35:08.558Z,95.40
2019-05-15T07:35:48.703Z,95.30
2019-05-15T07:36:28.741Z,94.90
2019-05-15T07:37:09.335Z,95.00
2019-05-15T07:37:47.893Z,95.10
2019-05-15T07:38:28.246Z,95.30
2019-05-15T07:39:08.391Z,95.00
2019-05-15T07:39:48.620Z,94.60
2019-05-15T07:40:33.723Z,94.70
2019-05-15T07:41:11.497Z,94.90
2019-05-15T07:41:49.574Z,95.60
2019-05-15T07:42:29.150Z,95.50
2019-05-15T07:43:09.399Z,95.90
2019-05-15T07:43:45.902Z,96.20
2019-05-15T07:44:24.070Z,96.40
2019-05-15T07:45:02.596Z,96.40
2019-05-15T07:45:43.728Z,96.70
2019-05-15T07:46:20.278Z,97.10
2019-05-15T07:47:00.846Z,97.70
2019-05-15T07:47:39.128Z,97.60
2019-05-15T07:48:18.775Z,97.50
2019-05-15T07:48:59.380Z,97.40
2019-05-15T07:49:38.794Z,97.30
2019-05-15T07:50:19.664Z,96.50
2019-05-15T07:50:59.395Z,96.10
2019-05-15T07:51:38.265Z,95.80
2019-05-15T07:52:19.174Z,96.00
2019-05-15T07:52:58.966Z,95.20
2019-05-15T07:53:38.470Z,94.10
2019-05-15T07:54:18.220Z,94.10
2019-05-15T07:54:58.193Z,94.10
2019-05-15T07:55:35.750Z,94.20
2019-05-15T07:56:13.503Z,94.80
2019-05-15T07:56:50.906Z,94.70
2019-05-15T07:57:29.912Z,95.40
2019-05-15T07:58:10.984Z,95.70
2019-05-15T07:58:52.413Z,96.10
2019-05-15T07:59:28.312Z,96.40
2019-05-15T08:00:25.280Z,96.10
2019-05-15T08:01:05.354Z,95.70
2019-05-15T08:01:43.158Z,96.00
2019-05-15T08:02:21.146Z,96.40
2019-05-15T08:02:59.934Z,96.40
2019-05-15T08:03:47.139Z,95.90
2019-05-15T08:04:26.194Z,94.90
2019-05-15T08:04:59.434Z,94.40
2019-05-15T08:05:39.482Z,94.00
2019-05-15T08:06:18.009Z,93.90
2019-05-15T08:06:54.942Z,92.80
2019-05-15T08:07:32.992Z,92.60
2019-05-15T08:08:10.851Z,92.90
2019-05-15T08:08:48.855Z,93.40
2019-05-15T08:09:28.262Z,93.60
2019-05-15T08:10:08.722Z,93.90
2019-05-15T08:10:49.055Z,93.20
2019-05-15T08:11:28.570Z,92.50
2019-05-15T08:12:08.278Z,91.80
2019-05-15T08:12:45.794Z,91.70
2019-05-15T08:13:23.774Z,91.90
2019-05-15T08:14:03.585Z,92.30
2019-05-15T08:14:41.173Z,92.70
2019-05-15T08:15:20.959Z,93.10
2019-05-15T08:15:58.754Z,93.10
2019-05-15T08:16:35.804Z,92.70
2019-05-15T08:17:14.088Z,92.50
2019-05-15T08:18:03.176Z,92.50
2019-05-15T08:18:31.572Z,92.70
2019-05-15T08:19:09.387Z,92.50
2019-05-15T08:19:48.691Z,92.70
2019-05-15T08:20:28.936Z,92.70
2019-05-15T08:21:08.813Z,92.40
2019-05-15T08:21:45.929Z,92.30
2019-05-15T08:22:23.742Z,92.30
2019-05-15T08:23:01.633Z,92.10
2019-05-15T08:23:39.307Z,91.30
2019-05-15T08:24:18.673Z,91.30
2019-05-15T08:24:58.960Z,91.30
2019-05-15T08:25:35.752Z,91.30
2019-05-15T08:26:13.782Z,91.20
2019-05-15T08:26:51.526Z,90.90
2019-05-15T08:27:29.834Z,90.80
2019-05-15T08:28:08.850Z,90.90
2019-05-15T08:28:48.724Z,91.10